Time;durP1;ratioP1;P1;durP2;ratioP2;P2;SDS_P1;SDS_P2;PMS_P1;PMS_P2;Temp;Humidity;BMP_temperature;BMP_pressure;BME280_temperature;BME280_humidity;BME280_pressure;Samples;Min_cycle;Max_cycle;Signal;HPM_P1;HPM_P2
2022/09/01 00:00:20;;;;;;;6.07;3.20;;;;;17.30;101454.00;;;;12818075;22;20833;-78
2022/09/01 00:05:21;;;;;;;6.60;3.42;;;;;17.20;101443.00;;;;12794047;22;20174;-77
2022/09/01 00:10:23;;;;;;;6.00;3.70;;;;;17.00;101442.00;;;;12816433;22;20543;-77
2022/09/01 00:15:25;;;;;;;7.07;2.85;;;;;16.90;101438.00;;;;12818231;22;20234;-77
2022/09/01 00:20:28;;;;;;;4.05;2.97;;;;;16.70;101447.00;;;;12837188;22;20181;-78
2022/09/01 00:25:29;;;;;;;5.88;2.63;;;;;16.50;101453.00;;;;12816979;22;20201;-77
2022/09/01 00:30:30;;;;;;;6.97;3.22;;;;;16.40;101453.00;;;;12863731;22;20189;-77
2022/09/01 00:35:32;;;;;;;3.92;3.17;;;;;16.30;101445.00;;;;12817714;22;20181;-77
2022/09/01 00:40:38;;;;;;;4.85;3.75;;;;;16.20;101452.00;;;;12862922;22;20256;-77
2022/09/01 00:45:40;;;;;;;10.93;4.00;;;;;16.00;101443.00;;;;12790543;22;20640;-77
2022/09/01 00:50:42;;;;;;;5.80;3.00;;;;;16.00;101443.00;;;;12817656;22;20174;-78
2022/09/01 00:55:44;;;;;;;7.20;3.72;;;;;15.90;101440.00;;;;12793563;22;20261;-78
2022/09/01 01:00:48;;;;;;;6.72;3.45;;;;;15.90;101438.00;;;;12792300;22;20170;-77
2022/09/01 01:05:56;;;;;;;6.13;3.92;;;;;15.80;101446.00;;;;12838444;22;20170;-77
2022/09/01 01:11:00;;;;;;;9.13;4.00;;;;;15.60;101439.00;;;;12768389;22;20600;-77
2022/09/01 01:16:06;;;;;;;7.30;3.20;;;;;15.60;101438.00;;;;12791622;22;20186;-78
2022/09/01 01:26:36;;;;;;;6.03;3.13;;;;;15.50;101438.00;;;;12816701;22;20197;-77
2022/09/01 01:31:38;;;;;;;5.20;2.77;;;;;15.50;101435.00;;;;12817509;22;20256;-77
2022/09/01 01:36:40;;;;;;;4.13;2.80;;;;;15.50;101445.00;;;;12818311;22;20252;-78
2022/09/01 01:41:48;;;;;;;5.17;2.80;;;;;15.50;101438.00;;;;12792852;22;20193;-77
2022/09/01 01:46:53;;;;;;;4.73;2.97;;;;;15.50;101437.00;;;;12865065;22;20186;-77
2022/09/01 01:51:57;;;;;;;4.23;2.70;;;;;15.50;101443.00;;;;12791014;22;20175;-77
2022/09/01 01:57:03;;;;;;;5.57;3.00;;;;;15.50;101453.00;;;;12792685;22;20805;-77
2022/09/01 02:02:07;;;;;;;3.43;2.23;;;;;15.60;101441.00;;;;12816799;22;20178;-78
2022/09/01 02:07:12;;;;;;;7.33;2.40;;;;;15.70;101444.00;;;;12768584;22;20526;-77
2022/09/01 02:12:17;;;;;;;5.23;2.20;;;;;15.80;101440.00;;;;12768789;22;20170;-77
2022/09/01 02:17:20;;;;;;;5.53;2.43;;;;;15.80;101441.00;;;;12837501;22;20177;-77
2022/09/01 02:22:21;;;;;;;4.60;2.40;;;;;15.90;101441.00;;;;12790864;22;20594;-77
2022/09/01 02:27:25;;;;;;;3.40;2.33;;;;;15.90;101445.00;;;;12817981;22;20186;-77
2022/09/01 02:32:28;;;;;;;3.47;1.80;;;;;15.90;101443.00;;;;12818242;22;20230;-77
2022/09/01 02:37:30;;;;;;;6.40;2.40;;;;;16.00;101435.00;;;;12838684;22;20261;-77
2022/09/01 02:42:31;;;;;;;3.17;1.88;;;;;16.00;101433.00;;;;12791881;22;20170;-77
2022/09/01 02:47:32;;;;;;;4.30;2.07;;;;;16.10;101424.00;;;;12792232;22;20186;-76
2022/09/01 02:52:36;;;;;;;3.60;2.30;;;;;16.10;101426.00;;;;12816944;22;20170;-78
2022/09/01 02:57:37;;;;;;;3.70;1.77;;;;;16.00;101417.00;;;;12791920;22;20189;-77
2022/09/01 03:02:39;;;;;;;3.85;2.13;;;;;16.00;101413.00;;;;12816963;22;20181;-77
2022/09/01 03:07:41;;;;;;;4.60;1.97;;;;;16.00;101422.00;;;;12837804;22;20228;-77
2022/09/01 03:12:42;;;;;;;4.50;2.93;;;;;15.90;101413.00;;;;12816768;22;20681;-77
2022/09/01 03:17:44;;;;;;;1.87;1.67;;;;;15.80;101416.00;;;;12818495;22;20170;-78
2022/09/01 03:22:47;;;;;;;4.43;1.87;;;;;15.80;101412.00;;;;12839834;22;20229;-77
2022/09/01 03:27:49;;;;;;;4.90;2.07;;;;;15.70;101417.00;;;;12814825;22;20190;-78
2022/09/01 03:32:50;;;;;;;6.17;2.33;;;;;15.50;101414.00;;;;12795112;22;21016;-77
2022/09/01 03:37:57;;;;;;;4.10;2.73;;;;;15.40;101407.00;;;;12794433;22;20194;-77
2022/09/01 03:43:00;;;;;;;5.83;2.50;;;;;15.30;101417.00;;;;12793815;22;20193;-77
2022/09/01 03:48:07;;;;;;;7.97;2.60;;;;;15.20;101410.00;;;;12793378;22;20312;-77
2022/09/01 03:53:10;;;;;;;4.97;2.83;;;;;15.00;101410.00;;;;12816461;22;20166;-77
2022/09/01 03:58:17;;;;;;;5.23;2.70;;;;;14.90;101403.00;;;;12793801;22;20702;-78
2022/09/01 04:03:21;;;;;;;6.27;3.10;;;;;14.80;101408.00;;;;12864284;22;20190;-77
2022/09/01 04:08:30;;;;;;;4.23;2.53;;;;;14.70;101408.00;;;;12841731;22;20222;-78
2022/09/01 04:13:37;;;;;;;5.90;2.77;;;;;14.50;101401.00;;;;12795217;22;20174;-78
2022/09/01 04:18:39;;;;;;;5.23;3.07;;;;;14.40;101408.00;;;;12817887;23;20177;-78
2022/09/01 04:23:41;;;;;;;5.03;3.03;;;;;14.30;101413.00;;;;12839368;22;20171;-77
2022/09/01 04:28:47;;;;;;;7.20;2.80;;;;;14.10;101414.00;;;;12837876;22;20217;-77
2022/09/01 04:33:51;;;;;;;5.63;2.80;;;;;14.00;101408.00;;;;12817814;22;20182;-77
2022/09/01 04:38:58;;;;;;;6.00;2.47;;;;;13.90;101410.00;;;;12793418;22;20201;-77
2022/09/01 04:44:03;;;;;;;6.60;3.10;;;;;13.80;101411.00;;;;12769561;22;20173;-77
2022/09/01 04:49:09;;;;;;;4.20;3.07;;;;;13.80;101404.00;;;;12839146;22;20193;-77
2022/09/01 04:54:15;;;;;;;5.90;2.53;;;;;13.70;101404.00;;;;12817238;22;20174;-77
2022/09/01 04:59:22;;;;;;;9.07;3.10;;;;;13.60;101409.00;;;;12768841;22;20248;-78
2022/09/01 05:04:33;;;;;;;6.23;3.17;;;;;13.50;101406.00;;;;12792162;22;20648;-77
2022/09/01 05:09:36;;;;;;;4.77;2.73;;;;;13.50;101406.00;;;;12793144;22;20501;-78
2022/09/01 05:14:56;;;;;;;5.63;2.87;;;;;13.50;101405.00;;;;12843760;22;20181;-77
2022/09/01 05:19:58;;;;;;;5.73;3.13;;;;;13.50;101403.00;;;;12838143;22;20165;-78
2022/09/01 05:25:13;;;;;;;5.23;3.37;;;;;13.60;101406.00;;;;12768360;22;20598;-77
2022/09/01 05:30:19;;;;;;;4.37;3.13;;;;;13.70;101395.00;;;;12813437;22;20514;-77
2022/09/01 05:35:24;;;;;;;7.13;3.43;;;;;13.90;101401.00;;;;12793148;23;20185;-77
2022/09/01 05:40:39;;;;;;;4.33;2.77;;;;;14.20;101410.00;;;;12840397;22;20186;-77
2022/09/01 05:45:42;;;;;;;5.97;3.33;;;;;14.40;101409.00;;;;12792498;22;20608;-77
2022/09/01 05:51:05;;;;;;;7.47;3.40;;;;;14.70;101414.00;;;;12835156;22;20205;-78
2022/09/01 05:56:28;;;;;;;6.27;3.53;;;;;15.00;101422.00;;;;12816043;22;20229;-77
2022/09/01 06:01:32;;;;;;;8.27;3.83;;;;;15.40;101405.00;;;;12784776;22;20260;-77
2022/09/01 06:06:39;;;;;;;15.83;4.43;;;;;15.70;101423.00;;;;12816541;22;20194;-77
2022/09/01 06:12:01;;;;;;;11.13;4.33;;;;;16.00;101421.00;;;;12859181;22;20264;-77
2022/09/01 06:17:03;;;;;;;12.87;5.40;;;;;16.30;101428.00;;;;12791168;22;20728;-77
2022/09/01 06:22:04;;;;;;;9.32;4.82;;;;;16.60;101426.00;;;;12812887;22;20255;-77
2022/09/01 06:27:10;;;;;;;11.50;5.18;;;;;17.10;101423.00;;;;12814974;22;20491;-77
2022/09/01 06:32:11;;;;;;;11.07;5.22;;;;;17.60;101417.00;;;;12835060;22;20174;-77
2022/09/01 06:37:14;;;;;;;9.50;4.75;;;;;18.10;101429.00;;;;12815074;22;20280;-77
2022/09/01 06:42:18;;;;;;;9.73;4.78;;;;;18.50;101437.00;;;;12813829;22;20273;-77
2022/09/01 06:47:27;;;;;;;8.77;5.28;;;;;18.70;101438.00;;;;12789230;22;20198;-77
2022/09/01 06:52:29;;;;;;;7.82;4.10;;;;;19.00;101440.00;;;;12833945;22;20170;-78
2022/09/01 06:57:52;;;;;;;10.25;3.85;;;;;19.30;101440.00;;;;12832969;22;20227;-75
2022/09/01 07:03:12;;;;;;;11.60;4.80;;;;;19.60;101435.00;;;;12806006;22;20170;-75
2022/09/01 07:08:42;;;;;;;7.45;4.47;;;;;19.80;101442.00;;;;12809546;22;20869;-75
2022/09/01 07:14:05;;;;;;;10.02;4.30;;;;;20.20;101447.00;;;;12800328;22;20606;-75
2022/09/01 07:19:22;;;;;;;11.32;4.43;;;;;20.30;101445.00;;;;12788293;22;20185;-75
2022/09/01 07:24:44;;;;;;;6.10;4.28;;;;;20.60;101454.00;;;;12760891;22;20193;-75
2022/09/01 07:30:20;;;;;;;7.32;3.85;;;;;20.50;101450.00;;;;12827335;22;20205;-75
2022/09/01 07:35:26;;;;;;;5.30;3.85;;;;;20.60;101455.00;;;;12782570;22;20270;-75
2022/09/01 07:40:28;;;;;;;3.45;3.10;;;;;20.70;101453.00;;;;12853053;22;20257;-75
2022/09/01 07:46:32;;;;;;;9.43;3.55;;;;;21.00;101467.00;;;;12659437;23;20192;-75
2022/09/01 07:51:50;;;;;;;4.80;3.60;;;;;21.40;101454.00;;;;12742249;22;20170;-76
2022/09/01 07:56:54;;;;;;;5.60;3.63;;;;;21.70;101461.00;;;;12829518;22;20170;-77
2022/09/01 08:01:55;;;;;;;8.88;4.03;;;;;21.80;101455.00;;;;12812108;22;20174;-77
2022/09/01 08:06:57;;;;;;;3.75;3.00;;;;;22.10;101452.00;;;;12789664;22;20198;-77
2022/09/01 08:11:58;;;;;;;7.15;3.13;;;;;22.60;101454.00;;;;12791070;22;20174;-77
2022/09/01 08:17:06;;;;;;;5.05;3.13;;;;;22.90;101457.00;;;;12815243;22;20249;-77
2022/09/01 08:22:29;;;;;;;6.90;3.10;;;;;23.00;101452.00;;;;12771480;22;20355;-77
2022/09/01 08:27:40;;;;;;;4.30;2.92;;;;;23.10;101452.00;;;;12860356;22;20186;-77
2022/09/01 08:32:41;;;;;;;4.05;2.67;;;;;23.70;101451.00;;;;12811946;22;20185;-77
2022/09/01 08:37:43;;;;;;;6.45;2.60;;;;;24.50;101449.00;;;;12766269;22;20197;-77
2022/09/01 08:43:12;;;;;;;6.65;2.38;;;;;25.30;101450.00;;;;12840386;22;20787;-77
2022/09/01 08:48:30;;;;;;;8.48;2.42;;;;;25.90;101452.00;;;;12836145;22;20190;-77
2022/09/01 08:54:02;;;;;;;3.60;2.22;;;;;26.30;101457.00;;;;12860296;22;20166;-78
2022/09/01 08:59:08;;;;;;;6.38;2.60;;;;;26.60;101460.00;;;;12860710;22;20170;-78
2022/09/01 09:04:55;;;;;;;8.98;2.42;;;;;27.00;101447.00;;;;12710022;23;20238;-78
2022/09/01 09:10:07;;;;;;;5.05;2.17;;;;;27.40;101441.00;;;;12774408;22;20205;-77
2022/09/01 09:15:26;;;;;;;4.68;2.20;;;;;28.00;101437.00;;;;12836443;22;20170;-77
2022/09/01 09:20:28;;;;;;;4.82;1.90;;;;;28.20;101437.00;;;;12856344;22;20178;-76
2022/09/01 09:25:30;;;;;;;4.40;1.90;;;;;28.60;101435.00;;;;12855949;22;20176;-77
2022/09/01 09:30:31;;;;;;;7.25;2.20;;;;;29.00;101435.00;;;;12812241;22;20724;-77
2022/09/01 09:35:39;;;;;;;2.42;1.83;;;;;29.20;101429.00;;;;12832272;22;20244;-77
2022/09/01 09:40:54;;;;;;;2.10;1.73;;;;;29.30;101423.00;;;;12787240;22;20455;-77
2022/09/01 09:46:30;;;;;;;4.40;2.08;;;;;29.40;101418.00;;;;12836619;22;20166;-77
2022/09/01 09:51:31;;;;;;;3.47;2.10;;;;;29.60;101416.00;;;;12855698;22;20166;-77
2022/09/01 09:56:33;;;;;;;2.92;1.50;;;;;29.70;101406.00;;;;12813808;22;20182;-78
2022/09/01 10:01:36;;;;;;;7.63;2.15;;;;;30.10;101408.00;;;;12790035;22;20498;-78
2022/09/01 10:06:40;;;;;;;1.92;1.70;;;;;30.20;101400.00;;;;12817190;22;20273;-78
2022/09/01 10:11:47;;;;;;;4.13;1.98;;;;;30.50;101399.00;;;;12789843;22;20260;-78
2022/09/01 10:17:18;;;;;;;2.20;1.65;;;;;30.50;101391.00;;;;12814101;22;20220;-77
2022/09/01 10:22:20;;;;;;;5.25;1.33;;;;;31.00;101384.00;;;;12785198;22;20542;-78
2022/09/01 10:27:24;;;;;;;1.40;1.30;;;;;31.60;101387.00;;;;12835441;22;20201;-78
2022/09/01 10:32:32;;;;;;;3.63;1.58;;;;;31.90;101391.00;;;;12812393;22;20177;-79
2022/09/01 10:37:47;;;;;;;2.10;1.30;;;;;31.70;101382.00;;;;12813389;22;20277;-77
2022/09/01 10:42:54;;;;;;;3.45;1.23;;;;;31.30;101377.00;;;;12835243;22;20247;-79
2022/09/01 10:47:55;;;;;;;2.80;1.42;;;;;31.30;101365.00;;;;12788656;22;20534;-78
2022/09/01 10:53:06;;;;;;;1.80;1.42;;;;;31.30;101371.00;;;;12814252;22;20174;-78
2022/09/01 10:58:13;;;;;;;7.38;2.00;;;;;31.20;101367.00;;;;12791115;22;20189;-78
2022/09/01 11:28:58;;;;;;;1.77;1.38;;;;;31.30;101362.00;;;;12700142;22;884665;-77
2022/09/01 11:34:10;;;;;;;3.67;1.50;;;;;31.60;101355.00;;;;12724694;22;20217;-77
2022/09/01 11:39:17;;;;;;;2.08;1.60;;;;;31.80;101358.00;;;;12701494;22;20637;-76
2022/09/01 11:44:23;;;;;;;6.22;1.70;;;;;32.20;101362.00;;;;12727015;22;20224;-77
2022/09/01 11:49:28;;;;;;;2.70;1.60;;;;;31.70;101366.00;;;;12663687;22;20284;-76
2022/09/01 11:54:40;;;;;;;4.95;1.42;;;;;31.80;101350.00;;;;12682213;22;20231;-77
2022/09/01 11:59:42;;;;;;;10.65;1.80;;;;;32.40;101347.00;;;;12727332;22;20178;-76
2022/09/01 12:04:43;;;;;;;5.65;1.65;;;;;33.10;101344.00;;;;12657030;22;20175;-77
2022/09/01 12:09:46;;;;;;;1.50;1.35;;;;;33.50;101361.00;;;;12681673;22;20288;-77
2022/09/01 12:14:55;;;;;;;4.75;1.63;;;;;33.20;101340.00;;;;12675351;22;20622;-76
2022/09/01 12:20:31;;;;;;;3.40;1.38;;;;;33.20;101336.00;;;;12679345;22;20569;-76
2022/09/01 12:25:34;;;;;;;6.47;2.08;;;;;33.20;101323.00;;;;12703730;22;20294;-77
2022/09/01 12:30:38;;;;;;;4.30;1.80;;;;;33.30;101324.00;;;;12754877;23;20562;-76
2022/09/01 12:35:40;;;;;;;2.60;1.40;;;;;33.20;101334.00;;;;12693573;23;20171;-76
2022/09/01 12:40:41;;;;;;;4.38;1.40;;;;;33.30;101331.00;;;;12762061;23;20167;-76
2022/09/01 12:45:46;;;;;;;1.52;1.42;;;;;33.30;101330.00;;;;12713828;23;20178;-77
2022/09/01 12:50:49;;;;;;;7.90;1.83;;;;;32.50;101317.00;;;;12737224;23;20197;-77
2022/09/01 12:56:15;;;;;;;1.77;1.50;;;;;32.60;101313.00;;;;12715691;23;20871;-76
2022/09/01 13:01:27;;;;;;;4.85;1.70;;;;;33.10;101314.00;;;;12760178;23;20194;-76
2022/09/01 13:06:28;;;;;;;1.80;1.38;;;;;33.50;101311.00;;;;12713497;23;20163;-76
2022/09/01 13:11:30;;;;;;;5.70;1.70;;;;;32.30;101314.00;;;;12763902;23;20252;-77
2022/09/01 13:16:51;;;;;;;2.67;1.77;;;;;31.30;101306.00;;;;12698953;23;20605;-77
2022/09/01 13:21:52;;;;;;;4.10;1.40;;;;;33.30;101310.00;;;;12739934;23;20177;-77
2022/09/01 13:26:56;;;;;;;2.70;1.77;;;;;34.20;101307.00;;;;12759870;23;20210;-75
2022/09/01 13:32:18;;;;;;;3.33;1.80;;;;;34.40;101301.00;;;;12761931;23;20206;-75
2022/09/01 13:37:22;;;;;;;2.70;1.58;;;;;35.20;101302.00;;;;12728534;23;20175;-75
2022/09/01 13:42:24;;;;;;;1.55;1.45;;;;;35.70;101295.00;;;;12711214;23;20179;-75
2022/09/01 13:47:29;;;;;;;4.70;1.67;;;;;36.20;101277.00;;;;12710541;23;20175;-76
2022/09/01 13:52:32;;;;;;;1.85;1.45;;;;;36.50;101270.00;;;;12758448;23;20182;-76
2022/09/01 13:57:34;;;;;;;3.55;1.65;;;;;35.90;101272.00;;;;12737523;23;20240;-75
2022/09/01 14:02:41;;;;;;;1.95;1.60;;;;;35.10;101271.00;;;;12713567;23;20262;-75
2022/09/01 14:07:43;;;;;;;2.75;1.55;;;;;34.10;101278.00;;;;12712663;23;20235;-74
2022/09/01 14:12:45;;;;;;;1.27;1.17;;;;;35.80;101254.00;;;;12781250;23;20194;-75
2022/09/01 14:17:49;;;;;;;5.85;1.50;;;;;36.40;101258.00;;;;12706509;23;20200;-75
2022/09/01 14:22:50;;;;;;;8.10;1.77;;;;;35.50;101261.00;;;;12757040;23;20256;-75
2022/09/01 14:27:52;;;;;;;3.22;1.58;;;;;34.00;101251.00;;;;12784345;23;20197;-75
2022/09/01 14:32:53;;;;;;;4.45;1.45;;;;;32.50;101260.00;;;;12690148;23;20665;-75
2022/09/01 14:37:55;;;;;;;5.22;1.38;;;;;31.10;101253.00;;;;12712918;23;20178;-75
2022/09/01 14:42:56;;;;;;;3.75;1.50;;;;;32.70;101239.00;;;;12730286;23;20193;-75
2022/09/01 14:47:59;;;;;;;7.75;1.33;;;;;32.10;101236.00;;;;12758061;23;20191;-76
2022/09/01 14:53:01;;;;;;;4.70;1.30;;;;;31.80;101230.00;;;;12783977;23;20195;-76
2022/09/01 14:58:03;;;;;;;3.03;1.38;;;;;30.20;101245.00;;;;12732214;23;20175;-76
2022/09/01 15:03:04;;;;;;;3.47;1.50;;;;;29.40;101230.00;;;;12713577;23;20178;-76
2022/09/01 15:08:08;;;;;;;2.03;1.48;;;;;29.00;101221.00;;;;12736700;23;20638;-75
2022/09/01 15:13:09;;;;;;;2.83;1.05;;;;;28.90;101228.00;;;;12710902;23;20653;-76
2022/09/01 15:18:11;;;;;;;2.42;1.00;;;;;29.10;101216.00;;;;12712108;23;20419;-75
2022/09/01 15:23:18;;;;;;;3.65;1.50;;;;;28.30;101210.00;;;;12759423;23;20245;-75
2022/09/01 15:28:21;;;;;;;1.65;1.20;;;;;27.60;101212.00;;;;12664347;23;20672;-75
2022/09/01 15:33:22;;;;;;;3.28;1.38;;;;;27.20;101213.00;;;;12784022;23;20217;-75
2022/09/01 15:38:24;;;;;;;2.53;1.10;;;;;26.90;101214.00;;;;12688408;23;20261;-74
2022/09/01 15:43:31;;;;;;;1.25;1.00;;;;;26.70;101205.00;;;;12757131;23;20232;-74
2022/09/01 15:48:32;;;;;;;1.90;1.30;;;;;26.50;101199.00;;;;12723228;23;20621;-74
2022/09/01 15:53:33;;;;;;;2.60;1.40;;;;;26.40;101194.00;;;;12705253;23;20182;-74
2022/09/01 15:58:35;;;;;;;4.28;1.42;;;;;26.30;101189.00;;;;12759360;23;20577;-75
2022/09/01 16:03:56;;;;;;;3.72;1.67;;;;;26.20;101200.00;;;;12765271;23;20162;-74
2022/09/01 16:08:58;;;;;;;2.88;1.13;;;;;26.10;101185.00;;;;12735742;23;20235;-74
2022/09/01 16:14:00;;;;;;;1.52;1.30;;;;;26.00;101180.00;;;;12716583;23;20254;-74
2022/09/01 16:19:28;;;;;;;2.80;1.30;;;;;25.90;101182.00;;;;12736896;23;20171;-74
2022/09/01 16:24:31;;;;;;;1.35;1.08;;;;;25.90;101169.00;;;;12716205;23;20195;-74
2022/09/01 16:29:45;;;;;;;4.10;1.40;;;;;25.80;101165.00;;;;12715699;23;20195;-74
2022/09/01 16:34:47;;;;;;;2.28;1.27;;;;;25.60;101167.00;;;;12711388;23;20163;-74
2022/09/01 16:39:56;;;;;;;4.45;1.58;;;;;25.50;101173.00;;;;12735624;23;20618;-74
2022/09/01 16:45:18;;;;;;;3.63;1.15;;;;;25.40;101164.00;;;;12733051;23;20168;-74
2022/09/01 16:50:37;;;;;;;3.03;1.35;;;;;25.40;101156.00;;;;12735894;23;20680;-74
2022/09/01 16:55:54;;;;;;;2.67;1.35;;;;;25.40;101148.00;;;;12786804;23;20167;-74
2022/09/01 17:00:55;;;;;;;3.25;1.15;;;;;25.30;101149.00;;;;12734317;23;20166;-74
2022/09/01 17:06:31;;;;;;;1.27;1.10;;;;;25.20;101146.00;;;;12760116;23;20680;-74
2022/09/01 17:11:45;;;;;;;1.67;1.25;;;;;25.00;101137.00;;;;12761292;23;20203;-74
2022/09/01 17:16:53;;;;;;;2.63;1.45;;;;;24.80;101146.00;;;;12735985;23;20251;-74
2022/09/01 17:22:06;;;;;;;4.50;1.70;;;;;24.60;101143.00;;;;12759521;23;20171;-75
2022/09/01 17:27:13;;;;;;;2.17;0.98;;;;;24.50;101141.00;;;;12736500;23;20202;-74
2022/09/01 17:33:01;;;;;;;2.17;1.25;;;;;24.30;101142.00;;;;12715295;23;20588;-74
2022/09/01 17:38:26;;;;;;;3.05;1.45;;;;;24.20;101136.00;;;;12667908;23;20170;-74
2022/09/01 17:43:55;;;;;;;5.78;1.45;;;;;23.90;101139.00;;;;12692098;23;20182;-74
2022/09/01 17:49:21;;;;;;;6.32;1.60;;;;;23.60;101138.00;;;;12760683;23;20794;-75
2022/09/01 17:54:53;;;;;;;3.90;1.48;;;;;23.30;101137.00;;;;12759091;23;20202;-75
2022/09/01 18:00:16;;;;;;;1.30;1.15;;;;;23.10;101140.00;;;;12759706;23;20754;-75
2022/09/01 18:05:20;;;;;;;1.67;1.45;;;;;22.80;101148.00;;;;12712040;23;20163;-74
2022/09/01 18:10:31;;;;;;;2.65;1.40;;;;;22.50;101143.00;;;;12760745;22;20191;-75
2022/09/01 18:15:49;;;;;;;3.85;1.50;;;;;22.20;101145.00;;;;12716161;23;20183;-74
2022/09/01 18:21:00;;;;;;;2.53;1.42;;;;;21.90;101147.00;;;;12786151;23;20266;-74
2022/09/01 18:26:31;;;;;;;3.38;1.67;;;;;21.70;101149.00;;;;12761011;23;20179;-74
2022/09/01 18:31:32;;;;;;;8.35;1.50;;;;;21.40;101150.00;;;;12759910;22;20187;-74
2022/09/01 18:36:37;;;;;;;3.95;1.70;;;;;21.20;101162.00;;;;12691293;23;20237;-74
2022/09/01 18:41:48;;;;;;;3.92;1.60;;;;;21.00;101152.00;;;;12691803;23;20789;-74
2022/09/01 18:47:05;;;;;;;6.22;1.70;;;;;20.80;101162.00;;;;12713869;23;20174;-75
2022/09/01 18:52:15;;;;;;;7.10;2.30;;;;;20.60;101154.00;;;;12733987;23;20194;-74
2022/09/01 18:57:19;;;;;;;3.05;1.92;;;;;20.40;101150.00;;;;12787446;23;20173;-74
2022/09/01 19:02:45;;;;;;;7.05;1.85;;;;;20.30;101154.00;;;;12715877;23;20218;-74
2022/09/01 19:07:56;;;;;;;2.65;1.52;;;;;20.20;101155.00;;;;12715256;23;20174;-74
2022/09/01 19:13:10;;;;;;;3.63;1.70;;;;;20.00;101154.00;;;;12760090;23;20191;-74
2022/09/01 19:18:12;;;;;;;5.85;1.50;;;;;19.90;101159.00;;;;12735013;23;20243;-74
2022/09/01 19:23:26;;;;;;;6.07;1.75;;;;;19.80;101163.00;;;;12735157;23;20179;-74
2022/09/01 19:28:52;;;;;;;2.17;1.50;;;;;19.60;101158.00;;;;12690507;23;20191;-73
2022/09/01 19:34:17;;;;;;;1.90;1.70;;;;;19.50;101161.00;;;;12726128;23;20175;-74
2022/09/01 19:39:26;;;;;;;2.28;1.70;;;;;19.40;101155.00;;;;12692907;23;20190;-74
2022/09/01 19:44:41;;;;;;;2.28;1.50;;;;;19.30;101159.00;;;;12743601;23;20168;-74
2022/09/01 19:49:50;;;;;;;3.40;1.65;;;;;19.20;101162.00;;;;12693456;23;20194;-74
2022/09/01 19:54:59;;;;;;;3.30;1.60;;;;;19.20;101160.00;;;;12694167;23;20171;-74
2022/09/01 20:00:26;;;;;;;6.07;1.60;;;;;19.10;101159.00;;;;12695270;23;20556;-74
2022/09/01 20:05:38;;;;;;;3.53;1.63;;;;;19.00;101157.00;;;;12820172;22;20173;-74
2022/09/01 20:10:56;;;;;;;4.95;1.67;;;;;18.90;101147.00;;;;12717469;23;20229;-74
2022/09/01 20:16:09;;;;;;;4.93;1.80;;;;;18.80;101162.00;;;;12743431;23;20201;-74
2022/09/01 20:21:11;;;;;;;7.47;1.75;;;;;18.70;101155.00;;;;12718003;23;20178;-74
2022/09/01 20:26:30;;;;;;;4.75;2.20;;;;;18.60;101154.00;;;;12789315;23;20618;-74
2022/09/01 20:31:38;;;;;;;7.82;2.13;;;;;18.50;101160.00;;;;12694460;23;20195;-74
2022/09/01 20:36:48;;;;;;;7.93;2.10;;;;;18.40;101148.00;;;;12715607;23;20171;-74
2022/09/01 20:42:03;;;;;;;4.95;1.50;;;;;18.20;101153.00;;;;12692198;23;20171;-74
2022/09/01 20:47:05;;;;;;;5.18;1.70;;;;;18.00;101144.00;;;;12741114;23;20182;-74
2022/09/01 20:52:14;;;;;;;3.20;1.75;;;;;17.90;101146.00;;;;12762927;23;20684;-74
2022/09/01 20:57:21;;;;;;;6.35;1.60;;;;;17.80;101129.00;;;;12717294;23;20747;-74
2022/09/01 21:02:43;;;;;;;3.45;1.83;;;;;17.70;101135.00;;;;12737761;23;20813;-74
2022/09/01 21:08:01;;;;;;;4.15;1.90;;;;;17.60;101132.00;;;;12717741;23;20212;-74
2022/09/01 21:13:35;;;;;;;3.20;1.70;;;;;17.50;101135.00;;;;12716383;23;20250;-74
2022/09/01 21:18:42;;;;;;;4.68;1.92;;;;;17.30;101137.00;;;;12761718;23;20826;-74
2022/09/01 21:23:43;;;;;;;6.47;2.13;;;;;17.20;101122.00;;;;12692283;23;20521;-74
2022/09/01 21:28:50;;;;;;;2.00;1.58;;;;;17.20;101131.00;;;;12716150;23;20238;-74
2022/09/01 21:33:52;;;;;;;4.22;2.53;;;;;17.10;101120.00;;;;12716047;23;20179;-74
2022/09/01 21:38:53;;;;;;;6.85;2.47;;;;;17.00;101120.00;;;;12740444;23;20190;-75
2022/09/01 21:43:54;;;;;;;3.95;2.00;;;;;16.90;101115.00;;;;12717110;23;20236;-75
2022/09/01 21:48:56;;;;;;;4.97;2.10;;;;;16.80;101116.00;;;;12787555;23;20173;-75
2022/09/01 21:53:57;;;;;;;5.15;2.05;;;;;16.60;101116.00;;;;12736489;23;20177;-75
2022/09/01 21:58:58;;;;;;;7.68;2.28;;;;;16.50;101110.00;;;;12736760;23;20680;-75
2022/09/01 22:04:03;;;;;;;4.33;1.80;;;;;16.40;101105.00;;;;12693060;23;20175;-75
2022/09/01 22:09:06;;;;;;;8.77;2.60;;;;;16.30;101108.00;;;;12691752;23;20262;-75
2022/09/01 22:14:21;;;;;;;10.68;2.53;;;;;16.40;101103.00;;;;12738746;23;20252;-75
2022/09/01 22:19:23;;;;;;;10.77;2.17;;;;;16.40;101092.00;;;;12760119;23;20167;-75
2022/09/01 22:24:24;;;;;;;3.63;2.25;;;;;16.50;101100.00;;;;12667804;23;20721;-75
